Time;durP1;ratioP1;P1;durP2;ratioP2;P2;SDS_P1;SDS_P2;PMS_P1;PMS_P2;Temp;Humidity;BMP_temperature;BMP_pressure;BME280_temperature;BME280_humidity;BME280_pressure;Samples;Min_cycle;Max_cycle;Signal;HPM_P1;HPM_P2
2021/05/17 00:01:55;;;;;;;7.63;4.80;;;15.90;75.20;;;;;;5056162;28;20041;-75
2021/05/17 00:04:29;;;;;;;8.27;4.50;;;15.90;75.30;;;;;;5066746;28;20094;-75
2021/05/17 00:06:59;;;;;;;6.72;4.30;;;15.80;75.20;;;;;;5060130;28;20085;-74
2021/05/17 00:09:25;;;;;;;6.38;3.85;;;15.80;75.20;;;;;;5071575;28;20035;-75
2021/05/17 00:11:51;;;;;;;7.65;3.67;;;15.80;75.50;;;;;;5064022;28;20037;-75
2021/05/17 00:14:19;;;;;;;6.50;4.38;;;15.70;75.60;;;;;;5053823;28;20543;-75
2021/05/17 00:16:46;;;;;;;7.07;3.78;;;15.60;76.00;;;;;;5057637;28;20082;-75
2021/05/17 00:19:12;;;;;;;7.35;4.38;;;15.60;75.90;;;;;;5061502;28;20029;-75
2021/05/17 00:21:39;;;;;;;6.53;4.15;;;15.60;76.00;;;;;;5042779;28;20060;-75
2021/05/17 00:24:05;;;;;;;6.68;4.15;;;15.70;76.10;;;;;;5051850;28;20033;-75
2021/05/17 00:26:31;;;;;;;6.43;3.70;;;15.70;75.90;;;;;;5057859;28;20037;-75
2021/05/17 00:28:57;;;;;;;6.75;3.40;;;15.60;76.20;;;;;;5055490;28;20433;-75
2021/05/17 00:31:23;;;;;;;6.88;3.80;;;15.70;75.70;;;;;;5035502;28;20119;-75
2021/05/17 00:33:49;;;;;;;7.30;4.22;;;15.70;75.70;;;;;;5044911;28;20041;-75
2021/05/17 00:36:16;;;;;;;7.20;3.80;;;15.50;76.00;;;;;;5070101;28;20039;-74
2021/05/17 00:38:42;;;;;;;8.32;3.53;;;15.60;75.80;;;;;;5069548;28;20450;-75
2021/05/17 00:41:08;;;;;;;7.20;4.38;;;15.40;76.20;;;;;;5052840;28;20102;-75
2021/05/17 00:43:37;;;;;;;7.88;3.97;;;15.40;76.10;;;;;;5056191;28;20033;-75
2021/05/17 00:46:09;;;;;;;6.75;4.03;;;15.30;76.60;;;;;;5053989;28;20045;-75
2021/05/17 00:48:36;;;;;;;7.50;3.90;;;15.20;76.80;;;;;;5067246;28;20035;-75
2021/05/17 00:51:04;;;;;;;6.82;3.88;;;15.30;76.90;;;;;;5059449;28;20506;-76
2021/05/17 00:53:30;;;;;;;8.73;4.85;;;15.30;77.00;;;;;;5057561;28;20035;-75
2021/05/17 00:55:56;;;;;;;7.22;3.72;;;15.20;77.30;;;;;;5053307;28;20064;-74
2021/05/17 00:58:22;;;;;;;7.82;5.22;;;15.10;77.50;;;;;;5059555;28;20063;-75
2021/05/17 01:00:48;;;;;;;7.03;4.57;;;15.30;77.40;;;;;;5059154;28;20029;-75
2021/05/17 01:03:14;;;;;;;10.23;5.85;;;15.20;77.80;;;;;;5058572;28;20060;-75
2021/05/17 01:05:40;;;;;;;8.20;4.72;;;15.30;77.60;;;;;;5048700;28;20029;-75
2021/05/17 01:08:09;;;;;;;9.43;5.18;;;15.10;77.90;;;;;;5049882;28;20043;-75
2021/05/17 01:10:42;;;;;;;7.80;4.95;;;15.10;78.00;;;;;;5060554;28;20024;-76
2021/05/17 01:13:08;;;;;;;7.88;5.13;;;15.30;77.90;;;;;;5061934;28;20036;-75
2021/05/17 01:15:36;;;;;;;9.73;5.15;;;15.30;77.90;;;;;;5051975;28;20016;-75
2021/05/17 01:18:02;;;;;;;9.23;6.00;;;15.20;78.30;;;;;;5060911;28;20095;-75
2021/05/17 01:20:32;;;;;;;8.57;4.88;;;15.20;78.30;;;;;;5051654;28;20033;-75
2021/05/17 01:23:28;;;;;;;8.35;5.00;;;15.20;78.30;;;;;;5051454;28;20437;-75
2021/05/17 01:25:53;;;;;;;12.57;6.70;;;15.20;78.50;;;;;;5051713;28;20071;-75
2021/05/17 01:28:23;;;;;;;9.30;5.80;;;15.30;78.30;;;;;;5056861;28;20021;-75
2021/05/17 01:30:55;;;;;;;9.75;5.43;;;15.20;78.20;;;;;;5056408;28;20032;-75
2021/05/17 01:33:21;;;;;;;8.55;5.32;;;15.30;78.10;;;;;;5064918;28;20071;-75
2021/05/17 01:35:48;;;;;;;8.50;4.82;;;15.20;78.50;;;;;;5049999;28;20467;-75
2021/05/17 01:38:16;;;;;;;7.07;5.18;;;15.20;78.10;;;;;;5051509;28;20059;-75
2021/05/17 01:40:44;;;;;;;14.13;5.88;;;15.30;78.10;;;;;;5055613;28;20044;-75
2021/05/17 01:43:15;;;;;;;10.40;5.35;;;15.20;78.50;;;;;;5067405;28;20494;-75
2021/05/17 01:45:42;;;;;;;7.95;5.13;;;15.20;78.40;;;;;;5067781;28;20111;-75
2021/05/17 01:48:08;;;;;;;8.68;5.55;;;15.40;77.90;;;;;;5059164;28;20048;-74
2021/05/17 01:50:35;;;;;;;8.48;4.63;;;15.30;77.60;;;;;;5064844;28;20191;-74
2021/05/17 01:53:01;;;;;;;8.32;4.68;;;15.20;78.00;;;;;;5064800;28;20041;-75
2021/05/17 01:55:28;;;;;;;6.82;4.82;;;15.20;78.00;;;;;;5067727;28;20032;-75
2021/05/17 01:58:10;;;;;;;8.68;5.30;;;15.30;77.90;;;;;;5063342;28;20106;-75
2021/05/17 02:00:36;;;;;;;8.40;4.43;;;15.20;77.80;;;;;;5048004;28;20105;-75
2021/05/17 02:03:02;;;;;;;7.40;4.63;;;15.10;78.20;;;;;;5049136;28;20056;-74
2021/05/17 02:05:29;;;;;;;7.80;4.45;;;15.20;78.00;;;;;;5060105;28;20033;-75
2021/05/17 02:07:55;;;;;;;8.73;4.78;;;15.10;78.10;;;;;;5064895;28;20056;-74
2021/05/17 02:10:21;;;;;;;7.95;4.43;;;15.10;78.10;;;;;;5049552;28;20032;-75
2021/05/17 02:12:48;;;;;;;7.05;3.85;;;15.10;78.20;;;;;;5064264;28;20029;-75
2021/05/17 02:15:18;;;;;;;7.75;4.72;;;15.00;78.50;;;;;;5049992;28;20025;-75
2021/05/17 02:17:45;;;;;;;8.40;4.22;;;15.20;78.30;;;;;;5049007;28;20403;-74
2021/05/17 02:20:17;;;;;;;7.88;4.68;;;15.20;78.30;;;;;;5050162;28;20029;-75
2021/05/17 02:22:46;;;;;;;9.18;4.60;;;15.20;78.20;;;;;;5065127;28;20142;-74
2021/05/17 02:25:13;;;;;;;9.90;5.75;;;15.20;78.30;;;;;;5048790;28;20104;-74
2021/05/17 02:27:42;;;;;;;8.73;5.00;;;15.00;78.60;;;;;;5058016;28;20044;-74
2021/05/17 02:30:11;;;;;;;7.05;4.40;;;15.20;78.40;;;;;;5054192;28;20484;-74
2021/05/17 02:32:37;;;;;;;9.00;4.78;;;15.20;78.50;;;;;;5052890;28;20032;-74
2021/05/17 02:35:04;;;;;;;8.20;5.03;;;15.10;78.90;;;;;;5061073;28;20128;-74
2021/05/17 02:37:32;;;;;;;7.20;5.40;;;15.10;78.90;;;;;;5052385;28;20052;-74
2021/05/17 02:39:58;;;;;;;9.27;5.30;;;15.10;78.90;;;;;;5049115;28;20118;-74
2021/05/17 02:42:28;;;;;;;8.82;5.25;;;15.20;78.90;;;;;;5057347;28;20514;-73
2021/05/17 02:44:54;;;;;;;7.03;4.18;;;15.10;78.80;;;;;;5055696;28;20467;-74
2021/05/17 02:47:20;;;;;;;9.10;5.05;;;15.10;78.80;;;;;;5056541;28;20052;-74
2021/05/17 02:49:46;;;;;;;10.05;4.82;;;15.20;78.50;;;;;;5051242;28;20033;-74
2021/05/17 02:52:12;;;;;;;9.32;5.10;;;15.20;78.50;;;;;;5065108;28;20358;-75
2021/05/17 02:54:39;;;;;;;8.10;4.75;;;15.10;78.80;;;;;;5056154;28;20033;-74
2021/05/17 02:57:07;;;;;;;8.27;4.13;;;15.20;78.50;;;;;;5048643;28;20025;-73
2021/05/17 02:59:36;;;;;;;8.10;4.60;;;15.20;78.50;;;;;;5049524;28;20029;-74
2021/05/17 03:02:07;;;;;;;10.02;5.32;;;15.10;78.40;;;;;;5049889;28;20464;-74
2021/05/17 03:04:37;;;;;;;8.48;4.55;;;15.10;78.50;;;;;;5057961;28;20362;-74
2021/05/17 03:07:14;;;;;;;8.57;4.78;;;15.00;78.90;;;;;;5059684;28;20029;-73
2021/05/17 03:09:44;;;;;;;7.60;4.95;;;15.10;78.50;;;;;;5065862;28;20024;-74
2021/05/17 03:12:11;;;;;;;8.15;4.63;;;15.00;78.90;;;;;;5063180;28;20463;-74
2021/05/17 03:14:41;;;;;;;8.70;5.05;;;15.10;78.50;;;;;;5067451;28;20083;-74
2021/05/17 03:17:10;;;;;;;9.43;4.63;;;15.10;78.50;;;;;;5063028;28;20039;-75
2021/05/17 03:19:37;;;;;;;9.23;4.57;;;15.10;78.60;;;;;;5048324;28;20419;-74
2021/05/17 03:22:04;;;;;;;10.35;5.47;;;15.00;79.00;;;;;;5049850;28;20036;-73
2021/05/17 03:24:33;;;;;;;6.80;4.40;;;15.10;78.70;;;;;;5061721;28;20074;-74
2021/05/17 03:27:15;;;;;;;9.63;4.53;;;15.00;79.10;;;;;;5059225;28;20017;-73
2021/05/17 03:29:41;;;;;;;7.32;4.10;;;15.20;78.60;;;;;;5059315;28;20024;-74
2021/05/17 03:32:06;;;;;;;8.38;5.00;;;15.30;78.60;;;;;;5059003;28;20063;-74
2021/05/17 03:34:32;;;;;;;8.73;4.93;;;15.30;78.60;;;;;;5049414;28;20098;-73
2021/05/17 03:36:57;;;;;;;13.00;6.25;;;15.30;78.50;;;;;;5048493;28;20167;-73
2021/05/17 03:39:23;;;;;;;8.35;5.13;;;15.20;78.90;;;;;;5054653;28;20083;-74
2021/05/17 03:41:49;;;;;;;9.50;4.90;;;15.30;78.50;;;;;;5058186;28;20390;-73
2021/05/17 03:44:14;;;;;;;8.50;4.93;;;15.30;78.40;;;;;;5052480;28;20115;-73
2021/05/17 03:46:40;;;;;;;8.35;4.38;;;15.30;78.30;;;;;;5052542;28;20047;-74
2021/05/17 03:49:06;;;;;;;7.97;5.25;;;15.30;78.30;;;;;;5066714;28;20041;-73
2021/05/17 03:51:31;;;;;;;10.55;5.85;;;15.20;78.70;;;;;;5052468;28;20037;-73
2021/05/17 03:53:57;;;;;;;8.30;5.18;;;15.20;78.60;;;;;;5069700;28;20781;-74
2021/05/17 03:56:22;;;;;;;7.53;5.03;;;15.10;79.00;;;;;;5065839;28;20039;-73
2021/05/17 03:58:48;;;;;;;9.75;5.07;;;15.30;78.70;;;;;;5060367;28;20028;-74
2021/05/17 04:01:16;;;;;;;7.57;4.63;;;15.20;79.10;;;;;;5057420;28;20033;-74
2021/05/17 04:03:41;;;;;;;8.35;5.10;;;15.30;78.50;;;;;;5060665;28;20538;-75
2021/05/17 04:06:25;;;;;;;9.90;4.22;;;15.40;78.70;;;;;;5048133;28;20124;-74
2021/05/17 04:14:20;;;;;;;8.93;4.70;;;15.20;79.10;;;;;;5056116;28;20120;-75
2021/05/17 04:16:46;;;;;;;9.30;5.78;;;15.30;79.20;;;;;;5068561;28;20115;-75
2021/05/17 04:19:12;;;;;;;12.27;5.10;;;15.40;79.00;;;;;;5072176;28;20028;-75
2021/05/17 04:21:39;;;;;;;10.52;5.82;;;15.30;79.00;;;;;;5064685;28;20040;-75
2021/05/17 04:24:05;;;;;;;10.60;5.53;;;15.30;79.20;;;;;;5062635;28;20032;-75
2021/05/17 04:26:30;;;;;;;9.60;5.03;;;15.20;79.60;;;;;;5063137;28;20048;-75
2021/05/17 04:28:56;;;;;;;8.25;4.93;;;15.20;79.70;;;;;;5053575;28;20036;-75
2021/05/17 04:31:22;;;;;;;13.77;5.78;;;15.20;79.70;;;;;;5064402;28;20041;-74
2021/05/17 04:33:48;;;;;;;9.07;5.00;;;15.30;79.20;;;;;;5053668;28;20452;-75
2021/05/17 04:36:13;;;;;;;9.75;5.20;;;15.40;79.20;;;;;;5052682;28;20128;-75
2021/05/17 04:38:39;;;;;;;11.07;5.22;;;15.30;79.70;;;;;;5050837;28;20055;-75
2021/05/17 04:41:05;;;;;;;8.63;5.25;;;15.40;79.20;;;;;;5052593;28;20055;-74
2021/05/17 04:43:30;;;;;;;11.85;6.05;;;15.40;79.30;;;;;;5053421;28;20041;-74
2021/05/17 04:45:56;;;;;;;9.90;4.82;;;15.30;79.70;;;;;;5060154;28;20075;-74
2021/05/17 04:48:22;;;;;;;9.63;5.53;;;15.30;80.40;;;;;;5068158;28;20033;-75
2021/05/17 04:50:47;;;;;;;9.30;5.10;;;15.20;79.90;;;;;;5051099;28;20447;-75
2021/05/17 04:53:13;;;;;;;10.38;5.57;;;15.20;80.10;;;;;;5054918;28;20455;-75
2021/05/17 04:55:39;;;;;;;14.32;5.78;;;15.30;80.00;;;;;;5062884;28;20024;-75
2021/05/17 04:58:08;;;;;;;12.00;5.60;;;15.30;80.10;;;;;;5033591;28;20094;-74
2021/05/17 05:00:33;;;;;;;11.73;5.82;;;15.20;80.40;;;;;;5082530;28;20028;-75
2021/05/17 05:02:59;;;;;;;10.55;5.05;;;15.40;80.10;;;;;;5051048;28;20053;-74
2021/05/17 05:05:25;;;;;;;8.18;5.28;;;15.40;80.20;;;;;;5039270;28;20500;-75
2021/05/17 05:07:50;;;;;;;9.35;5.28;;;15.20;80.50;;;;;;5044451;28;20035;-74
2021/05/17 05:10:16;;;;;;;11.25;5.22;;;15.30;80.70;;;;;;5070755;28;20525;-75
2021/05/17 05:12:42;;;;;;;10.00;4.30;;;15.20;80.60;;;;;;5062403;28;20025;-75
2021/05/17 05:15:08;;;;;;;10.90;4.93;;;15.30;80.30;;;;;;5066943;28;20025;-74
2021/05/17 05:17:33;;;;;;;10.27;5.30;;;15.20;80.70;;;;;;5057815;28;20112;-75
2021/05/17 05:19:59;;;;;;;10.13;5.07;;;15.30;80.70;;;;;;5069632;28;20419;-75
2021/05/17 05:22:24;;;;;;;8.23;4.72;;;15.40;80.50;;;;;;5057423;28;20041;-75
2021/05/17 05:24:53;;;;;;;10.18;5.13;;;15.30;80.90;;;;;;5068933;28;20043;-75
2021/05/17 05:29:56;;;;;;;8.20;4.93;;;15.30;81.00;;;;;;5061669;28;20159;-75
2021/05/17 05:32:31;;;;;;;8.30;4.13;;;15.50;80.70;;;;;;5066285;28;20135;-75
2021/05/17 05:34:57;;;;;;;7.93;4.70;;;15.50;80.40;;;;;;5068349;28;20038;-75
2021/05/17 05:37:22;;;;;;;8.50;4.15;;;15.50;80.30;;;;;;5044478;28;20024;-76
2021/05/17 05:39:48;;;;;;;8.18;4.53;;;15.50;80.70;;;;;;5060074;28;20471;-74
2021/05/17 05:42:14;;;;;;;6.88;4.18;;;15.60;80.10;;;;;;5058801;28;20116;-75
2021/05/17 05:44:48;;;;;;;7.32;4.03;;;15.50;80.50;;;;;;5077726;28;20043;-75
2021/05/17 05:47:16;;;;;;;8.80;4.38;;;15.60;80.60;;;;;;5055279;28;20029;-75
2021/05/17 05:49:47;;;;;;;8.77;4.68;;;15.50;80.40;;;;;;5067425;28;20100;-75
2021/05/17 05:52:14;;;;;;;8.05;4.65;;;15.50;80.60;;;;;;5070392;28;20028;-75
2021/05/17 05:54:40;;;;;;;7.40;4.55;;;15.50;80.70;;;;;;5063696;28;20028;-74
2021/05/17 05:57:07;;;;;;;11.75;5.15;;;15.50;80.90;;;;;;5056955;28;20028;-74
2021/05/17 05:59:33;;;;;;;7.50;4.07;;;15.40;80.90;;;;;;5050530;28;20095;-76
2021/05/17 06:01:59;;;;;;;7.55;4.38;;;15.40;81.10;;;;;;5060815;28;20061;-75
2021/05/17 06:04:25;;;;;;;7.90;4.28;;;15.40;81.10;;;;;;5046621;28;20048;-78
2021/05/17 06:06:51;;;;;;;8.65;4.30;;;15.50;80.50;;;;;;5061867;28;20032;-75
2021/05/17 06:09:17;;;;;;;10.85;5.22;;;15.50;80.60;;;;;;5096901;28;20059;-75
2021/05/17 06:11:43;;;;;;;12.00;5.05;;;15.40;81.00;;;;;;5074253;28;20086;-75
2021/05/17 06:14:09;;;;;;;8.80;4.18;;;15.40;81.00;;;;;;5056536;28;20041;-76
2021/05/17 06:16:35;;;;;;;7.40;4.15;;;15.40;81.20;;;;;;5063600;28;20332;-75
2021/05/17 06:19:01;;;;;;;8.90;4.53;;;15.40;81.30;;;;;;5050810;28;20064;-75
2021/05/17 06:21:28;;;;;;;8.02;4.75;;;15.40;81.20;;;;;;5060558;28;20029;-74
2021/05/17 06:23:57;;;;;;;9.75;5.90;;;15.50;81.20;;;;;;5058157;28;20475;-75
2021/05/17 06:26:27;;;;;;;13.32;5.30;;;15.70;80.60;;;;;;5067530;28;20029;-75
2021/05/17 06:28:54;;;;;;;9.68;4.80;;;15.50;80.90;;;;;;5060068;28;20067;-75
2021/05/17 06:31:21;;;;;;;8.90;4.80;;;15.60;80.90;;;;;;5064244;28;20051;-76
2021/05/17 06:33:47;;;;;;;11.82;4.90;;;15.60;81.10;;;;;;5062332;28;20037;-76
2021/05/17 06:36:15;;;;;;;8.25;4.75;;;15.60;80.90;;;;;;5066074;28;20036;-76
2021/05/17 06:38:40;;;;;;;10.38;5.03;;;15.60;80.90;;;;;;5058634;28;20051;-76
2021/05/17 06:41:07;;;;;;;11.23;5.13;;;15.60;81.00;;;;;;5057715;28;20036;-77
2021/05/17 06:43:35;;;;;;;8.90;4.82;;;15.80;80.70;;;;;;5055215;28;20040;-75
2021/05/17 06:46:03;;;;;;;9.55;5.53;;;15.70;81.10;;;;;;5070890;28;20028;-78
2021/05/17 06:48:29;;;;;;;9.07;5.25;;;16.00;80.30;;;;;;5066802;28;20028;-80
2021/05/17 06:50:55;;;;;;;8.57;5.13;;;15.90;80.70;;;;;;5068498;28;20060;-74
2021/05/17 06:53:21;;;;;;;8.95;5.22;;;16.00;80.60;;;;;;5058019;28;20083;-75
2021/05/17 06:58:21;;;;;;;9.60;5.20;;;16.10;80.40;;;;;;5061298;28;20067;-75
2021/05/17 07:00:47;;;;;;;10.30;4.97;;;16.10;80.30;;;;;;5062743;28;20082;-76
2021/05/17 07:03:13;;;;;;;7.22;4.45;;;16.30;79.80;;;;;;5053941;28;20053;-77
2021/05/17 07:05:40;;;;;;;10.18;5.05;;;16.30;79.60;;;;;;5061212;28;20070;-75
2021/05/17 07:13:19;;;;;;;8.98;4.63;;;16.30;79.90;;;;;;5055071;28;20044;-74
2021/05/17 07:15:45;;;;;;;8.40;5.43;;;16.40;79.20;;;;;;5090872;28;20024;-75
2021/05/17 07:18:12;;;;;;;8.27;5.03;;;16.30;79.60;;;;;;5069809;28;20028;-74
2021/05/17 07:23:41;;;;;;;9.63;4.35;;;16.30;78.50;;;;;;5071639;28;20041;-74
2021/05/17 07:26:18;;;;;;;8.73;4.50;;;16.20;78.80;;;;;;5040125;28;20047;-73
2021/05/17 07:28:46;;;;;;;8.20;4.93;;;16.40;78.40;;;;;;5056751;28;20029;-73
2021/05/17 07:31:14;;;;;;;8.25;4.95;;;16.30;78.90;;;;;;5059027;28;20025;-73
2021/05/17 07:33:40;;;;;;;8.60;4.63;;;16.30;78.50;;;;;;5089947;28;20029;-74
2021/05/17 07:36:06;;;;;;;8.30;4.88;;;16.40;77.80;;;;;;5062639;28;20495;-74
2021/05/17 07:38:32;;;;;;;10.55;4.63;;;16.20;78.30;;;;;;5067064;28;20032;-74
2021/05/17 07:41:00;;;;;;;11.32;4.43;;;16.30;78.50;;;;;;5063408;28;20024;-73
2021/05/17 07:43:26;;;;;;;8.30;4.00;;;16.30;78.50;;;;;;5056138;28;20071;-74
2021/05/17 07:45:54;;;;;;;9.40;4.43;;;16.40;78.00;;;;;;5054466;28;20033;-73
2021/05/17 07:48:20;;;;;;;8.95;4.55;;;16.30;78.40;;;;;;5066080;28;20047;-74
2021/05/17 07:50:46;;;;;;;8.77;4.30;;;16.50;78.00;;;;;;5050905;28;20033;-73
2021/05/17 07:53:12;;;;;;;7.10;4.07;;;16.40;78.30;;;;;;5064923;28;20040;-74
2021/05/17 07:55:39;;;;;;;8.48;4.65;;;16.40;78.10;;;;;;5058673;28;20033;-73
2021/05/17 07:58:05;;;;;;;10.52;4.85;;;16.40;77.60;;;;;;5056248;28;20032;-74
2021/05/17 08:00:31;;;;;;;9.00;4.85;;;16.50;76.80;;;;;;5054814;28;20025;-74
2021/05/17 08:02:56;;;;;;;7.80;4.57;;;16.40;77.40;;;;;;5065454;28;20067;-74
2021/05/17 08:05:22;;;;;;;6.82;3.83;;;16.40;77.50;;;;;;5064121;28;20032;-74
2021/05/17 08:07:48;;;;;;;9.75;4.35;;;16.40;77.60;;;;;;5052752;28;20112;-75
2021/05/17 08:10:14;;;;;;;9.63;4.32;;;16.50;77.30;;;;;;5058444;28;20059;-75
2021/05/17 08:12:40;;;;;;;7.50;4.20;;;16.50;77.30;;;;;;5068078;28;20025;-74
2021/05/17 08:15:06;;;;;;;7.75;4.10;;;16.70;76.50;;;;;;5062373;28;20040;-75
2021/05/17 08:17:33;;;;;;;8.50;5.60;;;16.80;76.60;;;;;;5064785;28;20040;-74
2021/05/17 08:20:00;;;;;;;8.07;4.32;;;16.70;76.90;;;;;;5051231;28;20047;-74
2021/05/17 08:22:26;;;;;;;9.52;4.10;;;16.80;76.70;;;;;;5057224;28;20058;-74
2021/05/17 08:24:53;;;;;;;8.10;4.55;;;17.00;76.70;;;;;;5056103;28;20056;-74
2021/05/17 08:27:18;;;;;;;8.88;4.60;;;17.10;76.30;;;;;;5064710;28;20053;-74
2021/05/17 08:29:44;;;;;;;7.03;3.92;;;17.60;74.90;;;;;;5059848;28;20059;-74
2021/05/17 08:32:10;;;;;;;9.88;3.85;;;17.50;75.20;;;;;;5070105;28;20032;-74
2021/05/17 08:34:36;;;;;;;8.02;3.97;;;17.70;74.40;;;;;;5061432;28;20047;-74
2021/05/17 08:37:03;;;;;;;9.25;3.58;;;17.80;73.80;;;;;;5071663;28;20509;-74
2021/05/17 08:39:28;;;;;;;7.32;3.38;;;17.90;74.50;;;;;;5053157;28;20120;-75
2021/05/17 08:41:56;;;;;;;7.03;3.63;;;18.20;73.20;;;;;;5058300;28;20133;-74
2021/05/17 08:44:26;;;;;;;10.60;3.90;;;18.10;73.50;;;;;;5067489;28;20444;-74
2021/05/17 08:46:52;;;;;;;6.15;3.17;;;18.20;72.20;;;;;;5069555;28;20016;-74
2021/05/17 08:49:18;;;;;;;6.05;3.10;;;18.30;72.00;;;;;;5064960;28;20043;-74
2021/05/17 08:51:45;;;;;;;9.05;3.25;;;18.20;72.00;;;;;;5056620;28;20111;-74
2021/05/17 08:54:11;;;;;;;5.25;2.20;;;18.10;72.10;;;;;;5052334;28;20079;-74
2021/05/17 08:56:43;;;;;;;5.70;2.45;;;18.00;72.70;;;;;;5054399;28;20107;-74
2021/05/17 08:59:10;;;;;;;6.78;3.10;;;17.90;73.40;;;;;;5061254;28;20082;-74
2021/05/17 09:01:36;;;;;;;7.18;3.22;;;18.20;74.30;;;;;;5064862;28;20136;-73
2021/05/17 09:04:13;;;;;;;4.80;2.90;;;18.30;73.40;;;;;;5066702;28;20126;-74
2021/05/17 09:06:47;;;;;;;4.68;3.05;;;18.70;73.10;;;;;;5055108;28;20108;-73
2021/05/17 09:09:35;;;;;;;7.10;3.58;;;19.00;72.60;;;;;;5050023;28;20115;-73
2021/05/17 09:12:04;;;;;;;8.52;3.55;;;18.90;73.40;;;;;;5064532;28;20028;-73
2021/05/17 09:14:31;;;;;;;5.78;3.10;;;19.10;72.10;;;;;;5052344;28;20343;-73
2021/05/17 09:17:06;;;;;;;10.40;3.95;;;19.60;69.70;;;;;;5069056;28;20114;-73
2021/05/17 09:19:32;;;;;;;8.63;3.92;;;20.00;70.40;;;;;;5069831;28;20066;-74
2021/05/17 09:22:13;;;;;;;7.57;3.40;;;20.20;68.60;;;;;;5065451;28;20105;-74
2021/05/17 09:24:51;;;;;;;8.40;3.42;;;20.60;69.10;;;;;;5051641;28;20033;-74
2021/05/17 09:27:31;;;;;;;6.85;3.72;;;20.90;66.80;;;;;;5054032;28;20060;-74
2021/05/17 09:30:00;;;;;;;7.35;3.65;;;20.80;67.60;;;;;;5055516;28;20386;-73
2021/05/17 09:32:37;;;;;;;6.95;3.70;;;21.10;66.60;;;;;;5060857;28;20025;-74
2021/05/17 09:35:16;;;;;;;6.22;3.38;;;21.20;64.30;;;;;;5051370;28;20435;-74
2021/05/17 09:37:58;;;;;;;6.95;3.17;;;21.30;64.20;;;;;;5055470;28;20023;-73
2021/05/17 09:40:28;;;;;;;5.20;2.90;;;21.50;65.20;;;;;;5055043;28;20029;-73
2021/05/17 09:43:08;;;;;;;7.28;3.05;;;21.70;61.30;;;;;;5061059;28;20366;-74
2021/05/17 09:45:37;;;;;;;5.63;2.70;;;21.30;61.50;;;;;;5063091;28;20043;-73
2021/05/17 09:48:10;;;;;;;6.55;2.92;;;21.20;62.70;;;;;;5060298;28;20457;-73
2021/05/17 09:50:54;;;;;;;;;;;20.80;63.80;;;;;;5059531;28;20036;-73
2021/05/17 09:53:31;;;;;;;7.20;3.20;;;20.90;64.10;;;;;;5051006;28;19956;-74
2021/05/17 09:55:57;;;;;;;8.65;3.90;;;20.50;64.00;;;;;;5061423;28;20024;-72
2021/05/17 09:58:31;;;;;;;8.85;3.70;;;20.40;63.70;;;;;;5056458;28;20052;-72
2021/05/17 10:01:27;;;;;;;5.78;3.00;;;20.40;63.60;;;;;;5069583;28;20074;-72
2021/05/17 10:04:00;;;;;;;6.72;2.78;;;20.60;64.40;;;;;;5066977;28;20064;-72
2021/05/17 10:06:26;;;;;;;4.97;2.30;;;21.10;64.40;;;;;;5068814;28;20029;-73
2021/05/17 10:08:53;;;;;;;6.97;3.13;;;21.30;63.70;;;;;;5064727;28;20402;-73
2021/05/17 10:11:22;;;;;;;6.35;3.30;;;21.30;61.20;;;;;;5064757;28;20021;-74
2021/05/17 10:13:48;;;;;;;7.22;3.13;;;21.00;60.70;;;;;;5060449;28;20044;-74
2021/05/17 10:16:16;;;;;;;7.47;2.70;;;20.70;61.90;;;;;;5054220;28;20029;-74
2021/05/17 10:18:43;;;;;;;5.25;2.88;;;20.40;62.60;;;;;;5051356;28;20035;-74
2021/05/17 10:21:12;;;;;;;6.38;2.50;;;20.20;63.60;;;;;;5053107;28;20033;-73
2021/05/17 10:23:39;;;;;;;6.30;2.78;;;20.20;63.10;;;;;;5053238;28;20469;-73
2021/05/17 10:26:15;;;;;;;6.30;2.75;;;20.10;62.20;;;;;;5053013;28;20029;-74
2021/05/17 10:28:53;;;;;;;4.72;2.45;;;20.20;62.40;;;;;;5062937;28;20259;-74
2021/05/17 10:31:20;;;;;;;7.70;3.00;;;20.30;63.10;;;;;;5057059;28;20092;-73
2021/05/17 10:34:04;;;;;;;4.97;2.88;;;20.50;62.70;;;;;;5056879;28;20029;-73
2021/05/17 10:36:54;;;;;;;7.28;3.45;;;20.30;61.70;;;;;;5056821;28;20383;-74
2021/05/17 10:39:25;;;;;;;5.13;2.42;;;20.30;61.20;;;;;;5063736;28;20032;-73
2021/05/17 10:47:43;;;;;;;5.50;2.90;;;20.00;63.00;;;;;;5059312;28;20047;-74
2021/05/17 10:50:16;;;;;;;4.75;2.58;;;20.00;62.50;;;;;;5046851;28;20396;-73
2021/05/17 10:52:41;;;;;;;;;;;19.90;62.30;;;;;;5063858;28;20028;-73
2021/05/17 10:55:13;;;;;;;5.80;2.30;;;19.90;63.10;;;;;;5050126;28;19908;-75
2021/05/17 11:00:29;;;;;;;5.90;2.90;;;19.40;65.20;;;;;;5062818;28;20040;-72
2021/05/17 11:03:15;;;;;;;5.40;2.67;;;19.30;66.50;;;;;;5057652;28;20410;-74
2021/05/17 11:05:43;;;;;;;5.40;2.80;;;19.10;67.80;;;;;;5060519;28;20198;-74
2021/05/17 11:08:14;;;;;;;4.55;2.60;;;19.10;68.10;;;;;;5052631;28;20041;-75
2021/05/17 11:10:43;;;;;;;5.63;2.78;;;19.20;68.70;;;;;;5055843;28;20032;-74
2021/05/17 11:13:08;;;;;;;4.95;2.72;;;20.10;71.20;;;;;;5081694;28;20364;-75
2021/05/17 11:15:53;;;;;;;5.03;2.53;;;20.10;71.10;;;;;;5053453;28;20050;-74
2021/05/17 11:18:40;;;;;;;5.32;2.95;;;20.60;70.40;;;;;;5051173;28;20095;-74
2021/05/17 11:21:21;;;;;;;7.07;2.70;;;21.40;66.70;;;;;;5052733;28;20174;-74
2021/05/17 11:23:49;;;;;;;5.20;3.00;;;21.30;67.10;;;;;;5049830;28;20094;-75
2021/05/17 11:26:19;;;;;;;5.40;2.45;;;21.40;65.40;;;;;;5048704;28;20028;-74
2021/05/17 11:28:48;;;;;;;5.05;2.72;;;21.40;65.40;;;;;;5055202;28;20029;-74
2021/05/17 11:31:38;;;;;;;6.28;3.10;;;21.20;65.20;;;;;;5050051;28;20029;-74
2021/05/17 11:34:04;;;;;;;5.18;2.90;;;21.00;66.50;;;;;;5061364;28;20344;-74
2021/05/17 11:36:35;;;;;;;5.20;2.80;;;21.20;67.50;;;;;;5067095;28;20031;-74
2021/05/17 11:41:41;;;;;;;4.68;2.60;;;21.90;63.50;;;;;;5060402;28;20034;-74
2021/05/17 11:44:12;;;;;;;4.05;2.50;;;21.80;64.10;;;;;;5065764;28;20036;-74
2021/05/17 11:46:44;;;;;;;6.35;2.60;;;22.10;62.70;;;;;;5058273;28;20478;-75
2021/05/17 11:49:13;;;;;;;5.55;2.78;;;22.10;61.30;;;;;;5057363;28;20397;-75
2021/05/17 11:51:39;;;;;;;4.38;2.35;;;21.90;60.70;;;;;;5060322;28;20017;-75
2021/05/17 11:54:05;;;;;;;7.00;2.85;;;21.80;61.00;;;;;;5059019;28;20047;-75
2021/05/17 11:56:46;;;;;;;4.68;2.42;;;21.70;59.60;;;;;;5055620;28;20032;-74
2021/05/17 11:59:16;;;;;;;5.20;2.45;;;21.90;59.00;;;;;;5066584;28;20108;-75
2021/05/17 12:01:44;;;;;;;3.40;2.17;;;22.10;58.60;;;;;;5067567;28;20394;-74
2021/05/17 12:04:14;;;;;;;4.78;2.42;;;22.20;58.60;;;;;;5055097;28;20110;-75
2021/05/17 12:06:49;;;;;;;3.97;2.35;;;22.40;58.80;;;;;;5052601;28;20029;-75
2021/05/17 12:09:31;;;;;;;3.95;2.10;;;22.50;59.00;;;;;;5056758;28;20045;-75
2021/05/17 12:12:00;;;;;;;4.78;2.45;;;22.80;58.90;;;;;;5053678;28;20036;-74
2021/05/17 12:14:25;;;;;;;4.45;2.50;;;23.00;57.40;;;;;;5055065;28;20052;-75
2021/05/17 12:17:16;;;;;;;6.45;2.78;;;23.20;57.50;;;;;;5062979;28;20072;-75
2021/05/17 12:19:44;;;;;;;5.93;3.17;;;23.40;55.90;;;;;;5064700;28;20470;-75
2021/05/17 12:22:15;;;;;;;5.47;3.15;;;23.60;55.90;;;;;;5064280;28;20025;-74
2021/05/17 12:24:41;;;;;;;5.60;3.35;;;23.70;55.00;;;;;;5050748;28;20391;-75
2021/05/17 12:27:08;;;;;;;7.20;3.08;;;23.70;55.00;;;;;;5061670;28;20461;-75
2021/05/17 12:29:57;;;;;;;5.68;3.42;;;23.50;55.10;;;;;;5064028;28;20083;-74
2021/05/17 12:32:36;;;;;;;5.88;3.45;;;23.10;55.70;;;;;;5059795;28;20056;-75
2021/05/17 12:35:12;;;;;;;6.47;3.80;;;22.80;56.40;;;;;;5049756;28;20036;-74
2021/05/17 12:37:48;;;;;;;5.90;3.10;;;22.40;56.60;;;;;;5064111;28;20032;-74
2021/05/17 12:40:20;;;;;;;6.45;3.35;;;22.10;57.90;;;;;;5070515;28;20082;-74
2021/05/17 12:43:04;;;;;;;5.93;3.08;;;21.90;58.60;;;;;;5062202;28;20493;-74
2021/05/17 12:45:31;;;;;;;6.32;2.67;;;21.70;59.10;;;;;;5061665;28;20081;-74
2021/05/17 12:47:57;;;;;;;4.80;3.00;;;21.60;58.40;;;;;;5056729;28;20056;-74
2021/05/17 12:50:26;;;;;;;5.78;3.42;;;21.40;58.40;;;;;;5067422;28;20492;-74
2021/05/17 12:53:12;;;;;;;6.05;3.50;;;21.00;59.40;;;;;;5062503;28;20029;-74
2021/05/17 12:55:47;;;;;;;6.20;2.83;;;20.60;60.50;;;;;;5065894;28;20025;-74
2021/05/17 12:58:14;;;;;;;5.07;2.88;;;20.30;60.40;;;;;;5066950;28;20024;-74
2021/05/17 13:00:47;;;;;;;5.88;2.92;;;19.70;60.90;;;;;;5066184;28;20063;-73
2021/05/17 13:03:13;;;;;;;;;;;19.50;61.60;;;;;;5061531;28;20048;-72
2021/05/17 13:05:53;;;;;;;5.45;2.78;;;19.20;62.60;;;;;;5060316;28;19931;-74
2021/05/17 13:08:21;;;;;;;6.03;3.25;;;19.00;64.10;;;;;;5060242;28;20032;-75
2021/05/17 13:11:05;;;;;;;7.43;4.40;;;19.00;65.20;;;;;;5061731;28;20096;-74
2021/05/17 13:13:41;;;;;;;7.57;4.63;;;19.00;65.80;;;;;;5056153;28;20033;-74
2021/05/17 13:16:11;;;;;;;15.00;4.28;;;19.00;66.10;;;;;;5059976;28;20033;-74
2021/05/17 13:19:45;;;;;;;6.00;4.03;;;19.10;66.60;;;;;;5066450;28;20025;-75
2021/05/17 13:30:11;;;;;;;6.40;3.53;;;20.20;65.90;;;;;;5057007;28;20133;-74
2021/05/17 13:32:40;;;;;;;5.07;2.58;;;20.40;64.50;;;;;;5051010;28;20078;-74
2021/05/17 13:35:11;;;;;;;4.85;2.72;;;20.70;63.40;;;;;;5060694;28;20484;-75